Hallandale, FL (33008)

4:31 AM EDT on July 26, 2016 (GMT -0400)
Hollywood (City Hall area) | | Change Station

Elev 39 ft 26.01 °N, 80.16 °W | Updated 5 seconds ago

Scattered Clouds
Scattered Clouds
81.1 °F
Feels Like 88 °F
N
0.0
Wind Variable Wind from SSE
Gusts 0.0 mph

Today
High -- | Low -- °F
--% Chance of Precip.
Yesterday
High -- | Low -- °F
Precip. -- in
Pressure 30.04 in
Visibility 10.0 miles
Clouds Scattered Clouds 2700 ft
Heat Index 88 °F
Dew Point 76 °F
Humidity 86%
Rainfall 0.00 in
Snow Depth Not available.
6:43 AM 8:10 PM
Waning Gibbous, 57% visible
METAR KFLL 260753Z 00000KT 10SM SCT027 27/25 A3004 RMK AO2 SLP170 T02720250
Pressure 30.04 in
Visibility 10.0 miles
Clouds Scattered Clouds 2700 ft
Heat Index 88 °F
Dew Point 76 °F
Humidity 86%
Rainfall 0.00 in
Snow Depth Not available.
6:43 AM 8:10 PM
Waning Gibbous, 57% visible
METAR KFLL 260753Z 00000KT 10SM SCT027 27/25 A3004 RMK AO2 SLP170 T02720250

10-Day Weather Forecast

Almanac

Astronomy

Jul. 26, 2016 Rise Set
Actual Time
Civil Twilight
Nautical Twilight
Astronomical Twilight
Moon
Length of Visible Light
Length of Day
Tomorrow will be .
, % of the Moon is Illuminated

Today's Extremes

State Highs State Lows

Community

WunderPhotos

Upload Photos

1,927,556 photos uploaded!

WunderBlog® & News

Nearby

Air Quality

  Air Quality AQ Index Pollutant
Not available.

Snow Depth

Station Depth Elevation

Earthquake Activity

City Distance Mag. Time & Date
Minimum magnitude displayed is 2.5.

Coastal Water Temperatures

Place Temperature

Stations

Nearby Weather Stations

Station Location Temp. Windchill Dew Point Humidity Wind Precip. Elev Updated Type
                   

Watches & Warnings

There are currently no watches in effect.